Time;durP1;ratioP1;P1;durP2;ratioP2;P2;SDS_P1;SDS_P2;PMS_P1;PMS_P2;Temp;Humidity;BMP_temperature;BMP_pressure;BME280_temperature;BME280_humidity;BME280_pressure;Samples;Min_cycle;Max_cycle;Signal;HPM_P1;HPM_P2
2022/11/08 00:01:31;;;;;;;;;;;;;;;12.09;53.89;100661.94;4956801;28;97988;-64
2022/11/08 00:04:02;;;;;;;;;;;;;;;12.08;54.12;100657.63;4959873;28;98234;-64
2022/11/08 00:14:42;;;;;;;;;;;;;;;12.03;53.82;100655.75;4972319;28;97946;-66
2022/11/08 00:17:08;;;;;;;;;;;;;;;12.05;53.88;100656.28;4961016;28;98014;-66
2022/11/08 00:19:34;;;;;;;;;;;;;;;12.04;53.98;100660.06;4962997;28;112417;-65
2022/11/08 00:22:00;;;;;;;;;;;;;;;12.03;54.01;100661.97;4955897;28;120574;-65
2022/11/08 00:24:26;;;;;;;;;;;;;;;12.02;53.77;100659.50;4958190;28;124285;-66
2022/11/08 00:26:52;;;;;;;;;;;;;;;12.01;53.79;100653.31;4957745;28;100617;-65
2022/11/08 00:29:18;;;;;;;;;;;;;;;12.00;54.08;100659.00;4961947;28;117783;-65
2022/11/08 00:31:44;;;;;;;;;;;;;;;11.99;53.98;100654.69;4966883;28;111645;-65
2022/11/08 00:34:10;;;;;;;;;;;;;;;11.99;53.95;100654.69;4967793;28;126962;-65
2022/11/08 00:36:36;;;;;;;;;;;;;;;11.98;53.88;100643.03;4957962;28;125899;-65
2022/11/08 00:39:02;;;;;;;;;;;;;;;11.97;54.07;100654.94;4959806;28;118448;-65
2022/11/08 00:41:28;;;;;;;;;;;;;;;11.97;53.97;100654.13;4960766;28;98677;-65
2022/11/08 00:43:53;;;;;;;;;;;;;;;11.96;54.08;100656.03;4943412;28;128158;-66
2022/11/08 00:46:19;;;;;;;;;;;;;;;11.96;53.97;100658.72;4959963;28;126683;-65
2022/11/08 00:48:45;;;;;;;;;;;;;;;11.95;54.01;100656.31;4963239;28;98469;-65
2022/11/08 00:51:11;;;;;;;;;;;;;;;11.94;54.04;100658.16;4969820;28;127220;-65
2022/11/08 00:53:38;;;;;;;;;;;;;;;11.93;54.32;100648.44;4950588;28;127202;-64
2022/11/08 00:56:05;;;;;;;;;;;;;;;11.94;53.92;100651.97;4961671;28;126845;-66
2022/11/08 00:58:31;;;;;;;;;;;;;;;11.92;53.85;100649.53;4959423;28;115786;-65
2022/11/08 01:00:57;;;;;;;;;;;;;;;11.93;53.90;100653.06;4961561;28;128305;-64
2022/11/08 01:03:23;;;;;;;;;;;;;;;11.92;54.05;100648.72;4958996;28;128466;-66
2022/11/08 01:05:50;;;;;;;;;;;;;;;11.90;53.90;100648.19;4959919;28;98656;-65
2022/11/08 01:08:16;;;;;;;;;;;;;;;11.90;53.83;100648.19;4955796;28;111324;-65
2022/11/08 01:10:43;;;;;;;;;;;;;;;11.90;54.12;100648.19;4972663;28;113054;-65
2022/11/08 01:13:10;;;;;;;;;;;;;;;11.88;54.02;100648.47;4956999;28;128778;-65
2022/11/08 01:15:39;;;;;;;;;;;;;;;11.88;54.04;100645.75;4959767;28;98392;-65
2022/11/08 01:18:05;;;;;;;;;;;;;;;11.88;53.97;100647.66;4956121;28;97941;-65
2022/11/08 01:20:31;;;;;;;;;;;;;;;11.86;54.01;100639.81;4962451;28;121658;-65
2022/11/08 01:22:57;;;;;;;;;;;;;;;11.86;53.91;100641.69;4962936;28;126580;-64
2022/11/08 01:25:23;;;;;;;;;;;;;;;11.85;54.07;100640.09;4961793;28;126338;-64
2022/11/08 01:27:49;;;;;;;;;;;;;;;11.84;53.86;100636.59;4959951;28;115063;-65
2022/11/08 01:30:14;;;;;;;;;;;;;;;11.84;54.09;100633.09;4970514;28;127294;-64
2022/11/08 01:32:40;;;;;;;;;;;;;;;11.83;54.04;100631.41;4962652;28;128384;-66
2022/11/08 01:35:07;;;;;;;;;;;;;;;11.83;54.00;100634.09;4965504;28;126525;-66
2022/11/08 01:37:33;;;;;;;;;;;;;;;11.83;53.92;100631.41;4957398;28;114413;-65
2022/11/08 01:39:59;;;;;;;;;;;;;;;11.82;54.09;100637.91;4957489;28;103485;-64
2022/11/08 01:42:31;;;;;;;;;;;;;;;11.82;54.07;100641.41;4962214;28;127492;-66
2022/11/08 01:45:02;;;;;;;;;;;;;;;11.80;53.98;100640.88;4961519;28;126001;-64
2022/11/08 01:47:28;;;;;;;;;;;;;;;11.79;54.03;100637.38;4976322;28;97675;-65
2022/11/08 01:49:55;;;;;;;;;;;;;;;11.79;54.06;100637.38;4958654;28;127626;-66
2022/11/08 01:52:39;;;;;;;;;;;;;;;11.77;53.89;100630.63;4978142;27;126891;-66
2022/11/08 01:55:14;;;;;;;;;;;;;;;11.76;54.04;100620.91;4960121;28;119666;-65
2022/11/08 01:57:50;;;;;;;;;;;;;;;11.75;53.93;100630.91;4976340;27;98963;-65
2022/11/08 02:00:16;;;;;;;;;;;;;;;11.75;54.10;100627.34;4959221;28;103691;-65
2022/11/08 02:02:43;;;;;;;;;;;;;;;11.73;54.12;100616.84;4966837;28;98455;-65
2022/11/08 02:05:23;;;;;;;;;;;;;;;11.73;53.88;100622.25;4960631;28;98104;-65
2022/11/08 02:08:10;;;;;;;;;;;;;;;11.71;54.04;100621.72;4958037;28;99243;-66
2022/11/08 02:10:38;;;;;;;;;;;;;;;11.71;54.05;100621.72;4962393;28;99219;-65
2022/11/08 02:13:06;;;;;;;;;;;;;;;11.69;53.93;100609.56;4964556;28;99118;-65
2022/11/08 02:15:32;;;;;;;;;;;;;;;11.68;54.06;100613.34;4963829;28;126821;-66
2022/11/08 02:17:58;;;;;;;;;;;;;;;11.67;54.00;100614.41;4960900;28;107800;-66
2022/11/08 02:20:24;;;;;;;;;;;;;;;11.66;53.94;100615.50;4958903;28;126006;-66
2022/11/08 02:23:02;;;;;;;;;;;;;;;11.65;53.83;100628.19;4982457;27;127687;-65
2022/11/08 02:25:28;;;;;;;;;;;;;;;11.63;54.01;100624.13;4960468;28;125863;-65
2022/11/08 02:27:54;;;;;;;;;;;;;;;11.61;53.99;100619.00;4967527;28;117635;-65
2022/11/08 02:30:20;;;;;;;;;;;;;;;11.61;53.82;100613.59;4958482;28;108336;-66
2022/11/08 02:32:46;;;;;;;;;;;;;;;11.60;54.15;100620.09;4961271;28;127912;-66
2022/11/08 02:35:14;;;;;;;;;;;;;;;11.58;54.06;100614.13;4965650;28;126465;-66
2022/11/08 02:37:40;;;;;;;;;;;;;;;11.55;54.02;100611.97;4959514;28;118013;-64
2022/11/08 02:40:06;;;;;;;;;;;;;;;11.55;53.92;100614.66;4966121;28;103003;-66
2022/11/08 02:42:32;;;;;;;;;;;;;;;11.54;54.01;100610.38;4956471;28;98498;-64
2022/11/08 02:44:58;;;;;;;;;;;;;;;11.53;54.24;100606.06;4970860;28;127149;-66
2022/11/08 02:47:24;;;;;;;;;;;;;;;11.50;53.90;100615.50;4960477;28;117644;-66
2022/11/08 02:49:50;;;;;;;;;;;;;;;11.51;54.07;100614.44;4965439;28;126351;-65
2022/11/08 02:52:16;;;;;;;;;;;;;;;11.50;54.06;100611.97;4959699;28;128839;-66
2022/11/08 02:54:42;;;;;;;;;;;;;;;11.48;54.12;100614.97;4963768;28;108218;-66
2022/11/08 02:57:08;;;;;;;;;;;;;;;11.48;54.05;100614.16;4960703;28;117473;-65
2022/11/08 02:59:33;;;;;;;;;;;;;;;11.47;54.18;100626.81;4977937;27;127603;-65
2022/11/08 03:01:59;;;;;;;;;;;;;;;11.45;53.88;100620.91;4966967;28;127385;-65
2022/11/08 03:04:25;;;;;;;;;;;;;;;11.43;54.02;100627.63;4960646;28;124951;-65
2022/11/08 03:06:51;;;;;;;;;;;;;;;11.42;54.14;100624.13;4965821;28;97945;-65
2022/11/08 03:09:17;;;;;;;;;;;;;;;11.42;53.95;100626.00;4960195;28;127987;-65
2022/11/08 03:11:43;;;;;;;;;;;;;;;11.40;54.30;100626.31;4982147;27;127838;-64
2022/11/08 03:14:09;;;;;;;;;;;;;;;11.39;54.33;100624.66;4958317;28;98379;-64
2022/11/08 03:16:35;;;;;;;;;;;;;;;11.37;53.86;100628.72;4965196;28;99341;-66
2022/11/08 03:19:01;;;;;;;;;;;;;;;11.36;53.87;100625.22;4964178;28;126041;-64
2022/11/08 03:21:27;;;;;;;;;;;;;;;11.34;54.18;100631.94;4973734;28;128784;-65
2022/11/08 03:23:53;;;;;;;;;;;;;;;11.33;54.04;100631.13;4962798;28;98552;-65
2022/11/08 03:26:18;;;;;;;;;;;;;;;11.31;54.06;100631.38;4963580;28;117491;-65
2022/11/08 03:28:44;;;;;;;;;;;;;;;11.30;54.07;100631.66;4961552;28;128127;-65
2022/11/08 03:31:10;;;;;;;;;;;;;;;11.29;54.25;100625.47;4965603;28;117582;-65
2022/11/08 03:33:36;;;;;;;;;;;;;;;11.28;53.88;100623.06;4960691;28;126983;-65
2022/11/08 03:36:02;;;;;;;;;;;;;;;11.26;53.97;100628.69;4958820;28;98200;-65
2022/11/08 03:38:28;;;;;;;;;;;;;;;11.25;53.81;100629.78;4960054;28;124265;-65
2022/11/08 03:40:54;;;;;;;;;;;;;;;11.24;54.03;100630.06;4976786;28;127621;-66
2022/11/08 03:43:20;;;;;;;;;;;;;;;11.23;54.08;100625.72;4963147;28;98405;-65
2022/11/08 03:45:46;;;;;;;;;;;;;;;11.22;54.25;100637.59;4961124;28;117477;-66
2022/11/08 03:48:12;;;;;;;;;;;;;;;11.20;54.21;100626.25;4960866;28;126060;-64
2022/11/08 03:50:38;;;;;;;;;;;;;;;11.19;53.92;100630.84;4962685;28;128309;-65
2022/11/08 03:53:04;;;;;;;;;;;;;;;11.18;54.03;100625.72;4963571;28;128522;-65
2022/11/08 03:55:30;;;;;;;;;;;;;;;11.18;53.94;100625.72;4965405;28;98078;-65
2022/11/08 03:57:56;;;;;;;;;;;;;;;11.15;54.15;100632.44;4960933;28;118699;-65
2022/11/08 04:00:26;;;;;;;;;;;;;;;11.15;54.06;100631.63;4969112;28;125546;-66
2022/11/08 04:02:53;;;;;;;;;;;;;;;11.12;53.92;100630.31;4959568;28;99461;-65
2022/11/08 04:05:19;;;;;;;;;;;;;;;11.11;54.07;100630.56;4963059;28;98127;-66
2022/11/08 04:07:45;;;;;;;;;;;;;;;11.10;53.85;100623.56;4961360;28;99580;-66
2022/11/08 04:10:12;;;;;;;;;;;;;;;11.10;53.93;100637.84;4955648;28;114512;-64
2022/11/08 04:15:24;;;;;;;;;;;;;;;11.04;53.94;100631.63;4960452;28;97931;-65
2022/11/08 04:23:38;;;;;;;;;;;;;;;11.01;54.25;100640.25;4959182;28;98758;-65
2022/11/08 04:26:05;;;;;;;;;;;;;;;11.01;53.91;100640.25;4954778;28;97792;-65
2022/11/08 04:28:33;;;;;;;;;;;;;;;10.99;54.18;100637.00;4958253;28;99009;-65
2022/11/08 04:31:01;;;;;;;;;;;;;;;10.97;54.07;100630.28;4961799;28;98298;-64
2022/11/08 04:33:27;;;;;;;;;;;;;;;10.97;53.89;100624.88;4963093;28;97994;-66
2022/11/08 04:35:53;;;;;;;;;;;;;;;10.96;54.06;100631.31;4965802;28;116679;-66
2022/11/08 04:38:19;;;;;;;;;;;;;;;10.95;54.14;100627.00;4960365;28;128221;-65
2022/11/08 04:40:45;;;;;;;;;;;;;;;10.93;54.18;100613.81;4959379;28;126669;-65
2022/11/08 04:43:11;;;;;;;;;;;;;;;10.92;53.91;100619.44;4958302;28;115325;-64
2022/11/08 04:45:37;;;;;;;;;;;;;;;10.91;53.90;100607.84;4960533;28;97900;-66
2022/11/08 04:48:03;;;;;;;;;;;;;;;10.90;54.21;100610.81;4955571;28;105249;-65
2022/11/08 04:50:29;;;;;;;;;;;;;;;10.89;54.21;100611.91;4959872;28;111800;-66
2022/11/08 04:52:55;;;;;;;;;;;;;;;10.86;54.21;100610.53;4959391;28;126937;-66
2022/11/08 04:55:21;;;;;;;;;;;;;;;10.86;54.30;100609.75;4977043;28;101296;-65
2022/11/08 04:57:47;;;;;;;;;;;;;;;10.84;53.96;100607.28;4961651;28;120775;-66
2022/11/08 05:00:14;;;;;;;;;;;;;;;10.83;54.17;100613.75;4963095;28;98514;-65
2022/11/08 05:02:40;;;;;;;;;;;;;;;10.81;53.78;100608.66;4964938;28;98356;-65
2022/11/08 05:05:07;;;;;;;;;;;;;;;10.80;54.05;100606.19;4962800;28;115975;-66
2022/11/08 05:07:33;;;;;;;;;;;;;;;10.80;54.19;100611.59;4965396;28;128615;-66
2022/11/08 05:09:58;;;;;;;;;;;;;;;10.77;53.98;100610.25;4963210;28;127399;-66
2022/11/08 05:12:24;;;;;;;;;;;;;;;10.77;54.31;100604.84;4957712;28;125307;-65
2022/11/08 05:14:50;;;;;;;;;;;;;;;10.77;54.20;100612.16;4975598;28;119256;-65
2022/11/08 05:17:16;;;;;;;;;;;;;;;10.74;54.32;100608.09;4963121;28;128965;-66
2022/11/08 05:25:11;;;;;;;;;;;;;;;10.72;54.29;100622.88;4959172;28;97856;-65
2022/11/08 05:27:37;;;;;;;;;;;;;;;10.70;53.86;100609.69;4963318;28;126817;-66
2022/11/08 05:30:03;;;;;;;;;;;;;;;10.69;54.22;100609.94;4965416;28;127223;-65
2022/11/08 05:32:29;;;;;;;;;;;;;;;10.68;54.18;100617.22;4970440;28;126910;-66
2022/11/08 05:34:55;;;;;;;;;;;;;;;10.66;54.25;100607.78;4961511;28;109326;-64
2022/11/08 05:37:21;;;;;;;;;;;;;;;10.66;53.78;100613.19;4961076;28;127109;-65
2022/11/08 05:39:47;;;;;;;;;;;;;;;10.65;54.02;100614.22;4964158;28;98771;-64
2022/11/08 05:42:13;;;;;;;;;;;;;;;10.63;53.93;100609.13;4958931;28;127058;-66
2022/11/08 05:44:39;;;;;;;;;;;;;;;10.63;54.14;100622.59;4963740;28;117260;-65
2022/11/08 05:47:05;;;;;;;;;;;;;;;10.63;53.82;100622.59;4955192;28;127732;-65
2022/11/08 05:49:31;;;;;;;;;;;;;;;10.61;54.18;100627.44;4962985;28;126726;-65
2022/11/08 05:51:56;;;;;;;;;;;;;;;10.61;54.11;100629.31;4971387;28;128326;-65
2022/11/08 05:54:22;;;;;;;;;;;;;;;10.59;53.98;100629.59;4961383;28;103628;-65
2022/11/08 05:56:49;;;;;;;;;;;;;;;10.59;54.03;100634.16;4952642;28;126936;-64
2022/11/08 05:59:14;;;;;;;;;;;;;;;10.59;54.46;100636.88;4958873;28;127221;-65
2022/11/08 06:01:40;;;;;;;;;;;;;;;10.58;54.27;100636.06;4960554;28;128581;-65
2022/11/08 06:04:07;;;;;;;;;;;;;;;10.57;54.37;100640.66;4962373;28;98054;-66
2022/11/08 06:06:33;;;;;;;;;;;;;;;10.56;54.18;100625.53;4959228;28;127972;-66
2022/11/08 06:08:59;;;;;;;;;;;;;;;10.56;54.13;100630.91;4972898;27;126620;-65
2022/11/08 06:11:25;;;;;;;;;;;;;;;10.56;54.23;100622.03;4970275;28;128109;-66
2022/11/08 06:13:52;;;;;;;;;;;;;;;10.56;54.17;100630.09;4963453;28;98087;-65
2022/11/08 06:16:18;;;;;;;;;;;;;;;10.55;54.27;100628.50;4962072;28;117965;-65
2022/11/08 06:18:44;;;;;;;;;;;;;;;10.55;53.70;100631.19;4961227;28;128773;-66
2022/11/08 06:21:11;;;;;;;;;;;;;;;10.55;54.07;100631.19;4963692;28;127646;-66
2022/11/08 06:23:37;;;;;;;;;;;;;;;10.55;54.19;100628.50;4963821;28;104250;-66
2022/11/08 06:26:03;;;;;;;;;;;;;;;10.55;54.14;100633.88;4963965;28;128137;-66
2022/11/08 06:28:29;;;;;;;;;;;;;;;10.55;53.82;100632.00;4968033;28;98292;-65
2022/11/08 06:30:58;;;;;;;;;;;;;;;10.56;54.07;100628.22;4962273;28;99033;-64
2022/11/08 06:33:24;;;;;;;;;;;;;;;10.57;54.06;100629.03;4961450;28;98233;-64
2022/11/08 06:35:50;;;;;;;;;;;;;;;10.57;53.99;100623.63;4964363;28;98658;-66
2022/11/08 06:38:16;;;;;;;;;;;;;;;10.59;54.00;100628.78;4962175;28;127191;-66
2022/11/08 06:40:41;;;;;;;;;;;;;;;10.59;54.03;100634.16;4956215;28;123287;-65
2022/11/08 06:43:09;;;;;;;;;;;;;;;10.59;54.03;100637.66;4960032;28;109574;-66
2022/11/08 06:45:35;;;;;;;;;;;;;;;10.58;53.96;100627.97;4979528;27;127506;-66
2022/11/08 06:48:02;;;;;;;;;;;;;;;10.60;53.61;100631.19;4974126;28;128384;-65
2022/11/08 06:50:29;;;;;;;;;;;;;;;10.60;53.94;100631.19;4948617;28;99800;-66
2022/11/08 06:52:56;;;;;;;;;;;;;;;10.60;53.56;100623.13;4962320;28;97808;-65
2022/11/08 06:55:21;;;;;;;;;;;;;;;10.61;53.89;100624.75;4963372;28;98325;-64
2022/11/08 06:57:48;;;;;;;;;;;;;;;10.61;54.00;100624.75;4963038;28;127842;-64
2022/11/08 07:00:14;;;;;;;;;;;;;;;10.62;53.92;100626.38;4964837;28;98030;-64
2022/11/08 07:02:40;;;;;;;;;;;;;;;10.63;53.72;100625.28;4960812;28;97969;-65
2022/11/08 07:05:07;;;;;;;;;;;;;;;10.64;53.63;100626.91;4959456;28;98394;-64
2022/11/08 07:07:32;;;;;;;;;;;;;;;10.64;53.88;100629.59;4970412;28;124393;-66
2022/11/08 07:09:58;;;;;;;;;;;;;;;10.67;53.73;100625.56;4964168;28;126405;-65
2022/11/08 07:12:24;;;;;;;;;;;;;;;10.71;53.76;100626.66;4959765;28;117551;-64
2022/11/08 07:14:50;;;;;;;;;;;;;;;10.75;53.87;100628.56;4956169;28;128068;-65
2022/11/08 07:17:16;;;;;;;;;;;;;;;10.80;53.69;100627.78;4962153;28;126726;-66
2022/11/08 07:19:42;;;;;;;;;;;;;;;10.86;53.44;100632.13;4959928;28;128091;-65
2022/11/08 07:22:08;;;;;;;;;;;;;;;10.91;53.34;100626.72;4962354;28;97835;-65
2022/11/08 07:24:34;;;;;;;;;;;;;;;10.95;53.44;100622.44;4966212;28;126985;-65
2022/11/08 07:27:00;;;;;;;;;;;;;;;11.02;53.60;100630.28;4964106;28;116513;-66
2022/11/08 07:29:26;;;;;;;;;;;;;;;11.03;53.57;100627.31;4963102;28;125848;-66
2022/11/08 07:31:52;;;;;;;;;;;;;;;11.11;53.19;100625.97;4962296;28;117119;-66
2022/11/08 07:34:18;;;;;;;;;;;;;;;11.13;53.24;100623.03;4962647;28;128379;-66
2022/11/08 07:36:43;;;;;;;;;;;;;;;11.15;53.33;100623.56;4959634;28;98344;-65
2022/11/08 07:39:09;;;;;;;;;;;;;;;11.15;53.38;100626.25;4961008;28;106581;-65
2022/11/08 07:41:35;;;;;;;;;;;;;;;11.25;53.24;100628.97;4962204;28;116673;-66
2022/11/08 07:44:01;;;;;;;;;;;;;;;11.34;53.46;100634.66;4974951;28;128047;-65
2022/11/08 07:46:27;;;;;;;;;;;;;;;11.44;53.07;100631.97;4958878;28;127073;-66
2022/11/08 07:48:53;;;;;;;;;;;;;;;11.60;53.04;100622.78;4947612;28;128009;-66
2022/11/08 07:51:19;;;;;;;;;;;;;;;11.83;52.59;100626.88;4965444;28;117484;-65
2022/11/08 07:53:45;;;;;;;;;;;;;;;12.09;52.46;100632.22;4979010;27;125520;-65
2022/11/08 07:56:11;;;;;;;;;;;;;;;12.34;52.19;100615.97;4964721;28;98198;-65
2022/11/08 07:58:37;;;;;;;;;;;;;;;12.72;51.71;100616.34;4953422;28;127213;-65
2022/11/08 08:01:04;;;;;;;;;;;;;;;13.10;51.47;100612.06;4963199;28;98824;-65
2022/11/08 08:03:30;;;;;;;;;;;;;;;13.41;50.93;100607.28;4973992;28;99006;-65
2022/11/08 08:05:56;;;;;;;;;;;;;;;13.78;50.84;100603.19;4964305;28;98496;-66
2022/11/08 08:08:22;;;;;;;;;;;;;;;14.15;50.43;100604.47;4958787;28;98832;-65
2022/11/08 08:10:48;;;;;;;;;;;;;;;14.52;50.39;100595.63;4960929;28;102931;-65
2022/11/08 08:13:14;;;;;;;;;;;;;;;14.94;50.23;100594.00;4962952;28;128306;-66
2022/11/08 08:15:40;;;;;;;;;;;;;;;15.39;49.79;100600.66;4963144;28;114420;-66
2022/11/08 08:18:06;;;;;;;;;;;;;;;15.84;49.33;100602.94;4963731;28;127320;-66
2022/11/08 08:20:32;;;;;;;;;;;;;;;16.31;49.16;100601.78;4962849;28;98711;-66
2022/11/08 08:22:58;;;;;;;;;;;;;;;16.78;49.09;100612.53;4968474;28;98534;-66
2022/11/08 08:25:24;;;;;;;;;;;;;;;17.21;48.94;100615.66;4963232;28;98819;-66
2022/11/08 08:27:52;;;;;;;;;;;;;;;17.64;48.93;100607.81;4963147;28;105919;-66
2022/11/08 08:30:18;;;;;;;;;;;;;;;18.07;48.67;100601.78;4964924;28;114734;-66
2022/11/08 08:32:44;;;;;;;;;;;;;;;18.50;48.47;100605.81;4962666;28;105860;-66
2022/11/08 08:35:11;;;;;;;;;;;;;;;18.93;48.36;100605.91;4964953;28;98098;-66
2022/11/08 08:37:37;;;;;;;;;;;;;;;19.36;48.34;100607.84;4966438;28;98190;-65
2022/11/08 08:40:04;;;;;;;;;;;;;;;19.77;48.20;100596.41;4974916;28;114261;-66
2022/11/08 08:42:31;;;;;;;;;;;;;;;20.20;48.04;100600.09;4959020;28;97897;-66
2022/11/08 08:44:57;;;;;;;;;;;;;;;20.60;48.12;100611.56;4950375;28;123351;-66
2022/11/08 08:47:23;;;;;;;;;;;;;;;20.98;47.91;100599.69;4965963;28;127588;-66
2022/11/08 08:49:48;;;;;;;;;;;;;;;21.34;47.81;100601.84;4963964;28;115561;-67
2022/11/08 08:52:14;;;;;;;;;;;;;;;21.69;47.91;100596.00;4965273;28;127887;-66
2022/11/08 08:54:41;;;;;;;;;;;;;;;22.02;47.96;100594.03;4959470;28;127346;-66
2022/11/08 08:57:06;;;;;;;;;;;;;;;22.32;47.88;100596.56;4967754;28;109126;-66
2022/11/08 08:59:32;;;;;;;;;;;;;;;22.64;47.83;100591.31;4977700;28;117596;-66
2022/11/08 09:01:59;;;;;;;;;;;;;;;23.00;47.61;100590.47;4962530;28;126855;-66
2022/11/08 09:04:26;;;;;;;;;;;;;;;23.13;47.93;100582.97;4959563;28;98933;-66
2022/11/08 09:06:52;;;;;;;;;;;;;;;23.21;48.25;100585.56;4966667;28;107330;-66
2022/11/08 09:09:18;;;;;;;;;;;;;;;23.37;48.33;100580.09;4965239;28;117345;-66
2022/11/08 09:11:44;;;;;;;;;;;;;;;23.61;48.35;100581.94;4965302;28;126178;-67
2022/11/08 09:14:10;;;;;;;;;;;;;;;23.87;48.10;100588.94;4968357;28;98035;-66
2022/11/08 09:16:35;;;;;;;;;;;;;;;24.03;48.33;100584.22;4958135;28;126988;-67
2022/11/08 09:19:01;;;;;;;;;;;;;;;24.12;48.42;100589.53;4975220;28;116858;-66
2022/11/08 09:21:27;;;;;;;;;;;;;;;24.15;48.94;100583.34;4966401;28;128136;-67
2022/11/08 09:23:53;;;;;;;;;;;;;;;24.17;49.02;100579.09;4967245;28;128098;-66
2022/11/08 09:26:19;;;;;;;;;;;;;;;24.21;49.18;100585.47;4960261;28;127376;-65
2022/11/08 09:28:45;;;;;;;;;;;;;;;24.24;49.59;100576.47;4967453;28;118025;-66
2022/11/08 09:31:11;;;;;;;;;;;;;;;24.22;49.65;100567.78;4967038;28;98978;-66
2022/11/08 09:33:38;;;;;;;;;;;;;;;24.19;49.59;100564.94;4966350;28;103769;-67
2022/11/08 09:36:05;;;;;;;;;;;;;;;24.09;49.87;100563.53;4971856;28;98136;-66
2022/11/08 09:38:31;;;;;;;;;;;;;;;24.03;50.13;100564.97;4967344;28;110193;-66
2022/11/08 09:41:02;;;;;;;;;;;;;;;23.96;50.15;100562.03;4964293;28;122063;-67
2022/11/08 09:43:47;;;;;;;;;;;;;;;23.87;50.13;100566.91;4963356;28;122591;-66
2022/11/08 09:46:25;;;;;;;;;;;;;;;23.75;50.58;100565.03;4967160;28;97865;-66
2022/11/08 09:48:51;;;;;;;;;;;;;;;23.68;50.54;100565.66;4949627;28;113558;-66
2022/11/08 09:51:19;;;;;;;;;;;;;;;23.59;50.48;100559.50;4944843;28;128699;-66
2022/11/08 09:53:51;;;;;;;;;;;;;;;23.47;50.65;100560.34;4958199;28;103406;-66
2022/11/08 09:56:23;;;;;;;;;;;;;;;23.24;51.16;100559.31;4976870;28;104273;-66
2022/11/08 09:59:00;;;;;;;;;;;;;;;23.04;51.40;100550.13;4965575;28;97919;-66
2022/11/08 10:01:33;;;;;;;;;;;;;;;22.95;51.31;100549.47;4952066;28;98302;-66
2022/11/08 10:04:04;;;;;;;;;;;;;;;22.82;51.36;100545.13;4962972;28;98525;-66
2022/11/08 10:06:56;;;;;;;;;;;;;;;22.67;51.52;100547.44;4964396;28;124631;-65
2022/11/08 10:09:45;;;;;;;;;;;;;;;22.54;51.35;100546.69;4980393;27;116657;-65
2022/11/08 10:12:33;;;;;;;;;;;;;;;22.43;51.44;100547.50;4962470;28;98325;-67
2022/11/08 10:15:28;;;;;;;;;;;;;;;22.30;51.77;100550.25;4973945;28;114486;-66
2022/11/08 10:17:58;;;;;;;;;;;;;;;22.24;51.60;100539.84;4964837;28;98097;-66
2022/11/08 10:20:36;;;;;;;;;;;;;;;22.17;51.69;100539.63;4963419;28;118014;-65
2022/11/08 10:23:20;;;;;;;;;;;;;;;22.11;51.84;100543.72;4979437;27;129326;-65
2022/11/08 10:26:00;;;;;;;;;;;;;;;22.10;51.72;100547.59;4963016;28;100110;-65
2022/11/08 10:28:32;;;;;;;;;;;;;;;21.99;51.83;100539.81;4959629;28;98038;-66
2022/11/08 10:30:58;;;;;;;;;;;;;;;21.97;51.59;100544.06;4962271;28;112418;-65
2022/11/08 10:33:31;;;;;;;;;;;;;;;21.99;51.81;100537.06;4976416;28;126489;-67
2022/11/08 10:36:10;;;;;;;;;;;;;;;21.88;51.80;100537.88;4963970;28;126172;-67
2022/11/08 10:38:58;;;;;;;;;;;;;;;21.84;51.63;100534.19;4963512;28;98042;-66
2022/11/08 10:41:29;;;;;;;;;;;;;;;21.80;51.62;100531.34;4961760;28;98477;-65
2022/11/08 10:44:04;;;;;;;;;;;;;;;21.77;51.80;100526.53;4961841;28;120648;-66
2022/11/08 10:46:41;;;;;;;;;;;;;;;21.75;51.84;100517.84;4980143;27;99102;-66
2022/11/08 10:49:18;;;;;;;;;;;;;;;21.74;51.66;100522.53;4963801;28;97795;-66
2022/11/08 10:51:44;;;;;;;;;;;;;;;21.76;51.79;100523.00;4977751;28;98629;-65
2022/11/08 10:54:44;;;;;;;;;;;;;;;21.81;51.72;100519.22;4960829;28;99184;-66
2022/11/08 10:57:16;;;;;;;;;;;;;;;21.81;51.61;100516.47;4958894;28;118908;-67
2022/11/08 10:59:42;;;;;;;;;;;;;;;21.92;51.65;100506.66;4963920;28;98004;-66
2022/11/08 11:02:30;;;;;;;;;;;;;;;21.94;51.55;100503.59;4963358;28;98586;-66
2022/11/08 11:05:20;;;;;;;;;;;;;;;21.96;51.49;100504.03;4965990;28;98886;-65
2022/11/08 11:07:56;;;;;;;;;;;;;;;21.96;51.90;100493.06;4962541;28;99241;-66
2022/11/08 11:10:39;;;;;;;;;;;;;;;21.92;51.58;100495.69;4971849;28;116631;-66
2022/11/08 11:13:17;;;;;;;;;;;;;;;21.85;51.63;100494.66;4955934;28;116507;-66
2022/11/08 11:15:47;;;;;;;;;;;;;;;21.72;51.89;100491.09;4961185;28;102665;-66
2022/11/08 11:18:24;;;;;;;;;;;;;;;21.60;52.10;100491.09;4962673;28;98306;-65
2022/11/08 11:21:10;;;;;;;;;;;;;;;21.47;52.20;100490.28;4956018;28;98552;-66
2022/11/08 11:23:44;;;;;;;;;;;;;;;21.35;52.27;100479.28;4963188;28;97795;-65
2022/11/08 11:26:27;;;;;;;;;;;;;;;21.23;52.49;100475.34;4981211;27;98270;-66
2022/11/08 11:29:05;;;;;;;;;;;;;;;21.14;52.36;100484.78;4973370;28;98807;-66
2022/11/08 11:31:38;;;;;;;;;;;;;;;21.05;52.41;100484.88;4964564;28;98031;-65
2022/11/08 11:34:16;;;;;;;;;;;;;;;20.97;52.51;100485.75;4965203;28;115234;-66
2022/11/08 11:36:49;;;;;;;;;;;;;;;20.89;52.53;100476.47;4963347;28;105717;-66
2022/11/08 11:39:20;;;;;;;;;;;;;;;20.81;52.58;100474.63;4962816;28;98149;-65
2022/11/08 11:42:10;;;;;;;;;;;;;;;20.70;52.59;100476.97;4979891;27;98708;-66
2022/11/08 11:44:58;;;;;;;;;;;;;;;20.54;52.81;100468.56;4965125;28;117414;-66
2022/11/08 11:47:31;;;;;;;;;;;;;;;20.43;52.89;100472.00;4969058;28;98482;-66
2022/11/08 11:50:02;;;;;;;;;;;;;;;20.29;52.87;100472.25;4963433;28;107544;-65
2022/11/08 11:52:28;;;;;;;;;;;;;;;20.16;52.90;100463.19;4963902;28;98424;-66
2022/11/08 11:54:54;;;;;;;;;;;;;;;20.04;53.02;100463.91;4961398;28;108488;-66
2022/11/08 11:57:40;;;;;;;;;;;;;;;19.92;53.19;100460.25;4958671;28;126122;-66
2022/11/08 12:00:11;;;;;;;;;;;;;;;19.80;53.23;100460.94;4963211;28;125634;-66
2022/11/08 12:03:00;;;;;;;;;;;;;;;19.72;53.19;100459.84;4945079;28;97988;-66
2022/11/08 12:05:48;;;;;;;;;;;;;;;19.63;53.10;100459.09;4960412;28;97767;-66
2022/11/08 12:08:27;;;;;;;;;;;;;;;19.58;53.00;100454.59;4966488;28;125802;-65
2022/11/08 12:11:03;;;;;;;;;;;;;;;19.56;53.11;100450.56;4962512;28;98435;-65
2022/11/08 12:13:50;;;;;;;;;;;;;;;19.53;53.04;100440.28;4962589;28;125732;-66
2022/11/08 12:16:24;;;;;;;;;;;;;;;19.50;52.89;100433.56;4965697;28;98385;-66
2022/11/08 12:19:31;;;;;;;;;;;;;;;19.47;53.04;100425.22;4964037;28;98620;-66
2022/11/08 12:22:16;;;;;;;;;;;;;;;19.46;52.90;100423.63;4964858;28;98341;-65
2022/11/08 12:24:49;;;;;;;;;;;;;;;19.40;52.95;100422.97;4968031;28;100355;-66
2022/11/08 12:27:47;;;;;;;;;;;;;;;19.38;53.09;100426.06;4944915;28;116473;-66
2022/11/08 12:30:20;;;;;;;;;;;;;;;19.31;53.01;100422.22;4963020;28;125363;-64
2022/11/08 12:32:59;;;;;;;;;;;;;;;19.26;53.06;100417.72;4980819;27;98604;-66
2022/11/08 12:35:47;;;;;;;;;;;;;;;19.20;53.06;100419.03;4962258;28;98910;-66
2022/11/08 12:38:22;;;;;;;;;;;;;;;19.12;53.21;100417.13;4964059;28;97809;-65
2022/11/08 12:41:04;;;;;;;;;;;;;;;19.04;53.30;100415.22;4962190;28;98446;-66
2022/11/08 12:43:43;;;;;;;;;;;;;;;18.95;53.12;100406.25;4964174;28;128554;-67
2022/11/08 12:46:18;;;;;;;;;;;;;;;18.86;53.24;100409.81;4964686;28;107024;-66
2022/11/08 12:49:02;;;;;;;;;;;;;;;18.78;53.27;100407.06;4964647;28;97942;-66
2022/11/08 12:51:51;;;;;;;;;;;;;;;18.69;53.30;100407.06;4960667;28;98400;-65
2022/11/08 12:54:43;;;;;;;;;;;;;;;18.61;53.49;100402.41;4963197;28;98225;-65
2022/11/08 12:57:10;;;;;;;;;;;;;;;18.53;53.54;100395.03;4958322;28;124996;-66
2022/11/08 12:59:45;;;;;;;;;;;;;;;18.46;53.54;100389.25;4959779;28;118029;-65
2022/11/08 13:02:37;;;;;;;;;;;;;;;18.40;53.67;100392.16;4966514;28;98922;-66
2022/11/08 13:05:27;;;;;;;;;;;;;;;18.40;53.46;100380.44;4953162;28;128112;-65